Estherville, IA (51334)

3:41 AM CDT on August 26, 2016 (GMT -0500)
| | Change Station

Elev -9999 ft 0.00 °N, 0.00 °E | Updated

Clear
Clear
51 °F
Feels Like 51 °F
N
2
Wind Variable Wind from ENE
Gusts mph

Today
High -- | Low -- °F
--% Chance of Precip.
Yesterday
High -- | Low -- °F
Precip. -- in
Pressure 30.17 in
Visibility 10.0 miles
Clouds Clear
Dew Point 50 °F
Humidity 95%
Rainfall --
Snow Depth Not available.
6:37 AM 8:03 PM
Last Quarter, 37% visible
METAR KEST 260752Z AUTO 00000KT 10SM CLR 11/11 A3017 RMK AO2 SLP215 T01110111 $
Pressure 30.17 in
Visibility 10.0 miles
Clouds Clear
Dew Point 50 °F
Humidity 95%
Rainfall --
Snow Depth Not available.
6:37 AM 8:03 PM
Last Quarter, 37% visible
METAR KEST 260752Z AUTO 00000KT 10SM CLR 11/11 A3017 RMK AO2 SLP215 T01110111 $

10-Day Weather Forecast

Almanac

Astronomy

Aug. 26, 2016 Rise Set
Actual Time
Civil Twilight
Nautical Twilight
Astronomical Twilight
Moon
Length of Visible Light
Length of Day
Tomorrow will be .
, % of the Moon is Illuminated

Today's Extremes

State Highs State Lows

Community

WunderPhotos

Upload Photos

1,935,062 photos uploaded!

WunderBlog® & News

Nearby

Air Quality

  Air Quality AQ Index Pollutant
Not available.

Snow Depth

Station Depth Elevation

Earthquake Activity

City Distance Mag. Time & Date
Minimum magnitude displayed is 2.5.

Coastal Water Temperatures

Place Temperature

Stations

Nearby Weather Stations

Station Location Temp. Windchill Dew Point Humidity Wind Precip. Elev Updated Type
                   

Watches & Warnings

There are currently no watches in effect.